createdAt,value
2022-11-15T00:01:18.124Z,385.50
2022-11-15T00:03:50.481Z,491.43
2022-11-15T00:06:22.367Z,397.93
2022-11-15T00:08:49.334Z,366.46
2022-11-15T00:11:16.347Z,419.59
2022-11-15T00:13:40.810Z,433.83
2022-11-15T00:16:07.028Z,582.89
2022-11-15T00:18:39.868Z,260.16
2022-11-15T00:21:14.511Z,334.03
2022-11-15T00:23:43.049Z,448.13
2022-11-15T00:26:11.114Z,388.33
2022-11-15T00:28:35.701Z,390.53
2022-11-15T00:31:09.028Z,292.32
2022-11-15T00:33:35.990Z,287.99
2022-11-15T00:36:05.635Z,251.14
2022-11-15T00:38:34.878Z,257.91
2022-11-15T00:40:59.059Z,287.00
2022-11-15T00:43:27.135Z,270.44
2022-11-15T00:45:51.627Z,284.77
2022-11-15T00:48:16.182Z,305.00
2022-11-15T00:52:07.807Z,309.27
2022-11-15T00:54:33.112Z,320.85
2022-11-15T00:56:58.231Z,316.17
2022-11-15T00:59:22.898Z,325.57
2022-11-15T01:01:49.832Z,351.81
2022-11-15T01:04:14.079Z,339.25
2022-11-15T01:06:38.744Z,352.96
2022-11-15T01:09:14.702Z,342.65
2022-11-15T01:11:39.328Z,376.02
2022-11-15T01:14:04.738Z,339.33
2022-11-15T01:16:29.305Z,358.08
2022-11-15T01:19:00.523Z,316.79
2022-11-15T01:21:32.522Z,319.71
2022-11-15T01:24:09.997Z,333.38
2022-11-15T01:26:44.364Z,338.21
2022-11-15T01:29:09.043Z,312.15
2022-11-15T01:31:35.230Z,325.39
2022-11-15T01:34:02.520Z,323.29
2022-11-15T01:36:26.968Z,314.71
2022-11-15T01:38:51.354Z,304.84
2022-11-15T01:41:26.369Z,310.35
2022-11-15T01:43:58.215Z,316.20
2022-11-15T01:46:34.923Z,302.11
2022-11-15T01:49:06.418Z,294.15
2022-11-15T01:51:37.684Z,299.72
2022-11-15T01:54:14.668Z,295.55
2022-11-15T01:56:50.050Z,301.62
2022-11-15T01:59:19.606Z,304.07
2022-11-15T02:01:46.181Z,294.36
2022-11-15T02:04:19.731Z,299.27
2022-11-15T02:06:53.692Z,289.57
2022-11-15T02:09:22.917Z,281.95
2022-11-15T02:11:52.085Z,288.73
2022-11-15T02:14:26.347Z,298.18
2022-11-15T02:17:06.151Z,287.98
2022-11-15T02:20:19.984Z,292.49
2022-11-15T02:23:18.172Z,313.81
2022-11-15T02:25:58.581Z,331.63
2022-11-15T02:28:55.872Z,320.92
2022-11-15T02:31:38.367Z,316.21
2022-11-15T02:34:21.597Z,334.76
2022-11-15T02:36:58.237Z,327.59
2022-11-15T02:39:37.243Z,315.81
2022-11-15T02:42:31.755Z,298.06
2022-11-15T02:45:12.867Z,332.82
2022-11-15T02:47:48.280Z,333.68
2022-11-15T02:50:23.396Z,317.08
2022-11-15T02:52:51.767Z,305.95
2022-11-15T02:55:35.513Z,307.00
2022-11-15T02:58:32.287Z,322.92
2022-11-15T03:01:17.774Z,306.25
2022-11-15T03:04:07.772Z,315.89
2022-11-15T03:06:47.052Z,312.74
2022-11-15T03:09:27.702Z,295.86
2022-11-15T03:12:05.075Z,300.95
2022-11-15T03:14:39.039Z,319.06
2022-11-15T03:17:19.631Z,303.23
2022-11-15T03:20:08.080Z,306.18
2022-11-15T03:22:40.491Z,283.19
2022-11-15T03:25:12.811Z,284.76
2022-11-15T03:27:53.039Z,275.20
2022-11-15T03:30:36.125Z,272.29
2022-11-15T03:33:07.942Z,284.27
2022-11-15T03:35:44.553Z,287.66
2022-11-15T03:38:23.617Z,276.61
2022-11-15T03:41:02.474Z,268.00
2022-11-15T03:43:40.178Z,249.03
2022-11-15T03:46:11.883Z,254.77
2022-11-15T03:48:46.868Z,245.99
2022-11-15T03:51:20.209Z,243.05
2022-11-15T03:53:46.225Z,235.71
2022-11-15T03:56:11.292Z,252.07
2022-11-15T03:58:38.359Z,261.42
2022-11-15T04:01:03.846Z,275.32
2022-11-15T04:03:28.313Z,294.82
2022-11-15T04:05:53.677Z,289.55
2022-11-15T04:08:30.615Z,307.36
2022-11-15T04:10:56.236Z,304.39
2022-11-15T04:13:20.560Z,307.70
2022-11-15T04:15:45.897Z,316.10
2022-11-15T04:18:13.118Z,327.23
2022-11-15T04:20:50.662Z,328.64
2022-11-15T04:23:31.842Z,336.29
2022-11-15T04:26:03.260Z,362.36
2022-11-15T04:28:28.362Z,377.36
2022-11-15T04:30:53.108Z,407.94
2022-11-15T04:33:18.546Z,381.94
2022-11-15T04:35:43.792Z,409.37
2022-11-15T04:38:08.993Z,457.05
2022-11-15T04:40:33.638Z,404.22
2022-11-15T04:43:04.831Z,376.54
2022-11-15T04:45:30.422Z,372.69
2022-11-15T04:47:56.178Z,373.45
2022-11-15T04:50:21.450Z,370.17
2022-11-15T04:52:53.529Z,334.39
2022-11-15T04:55:18.138Z,356.77
2022-11-15T04:57:43.084Z,379.80
2022-11-15T05:00:14.975Z,344.32
2022-11-15T05:02:51.687Z,344.59
2022-11-15T05:05:16.842Z,320.92
2022-11-15T05:07:41.271Z,321.60
2022-11-15T05:10:05.469Z,336.32
2022-11-15T05:12:38.397Z,331.32
2022-11-15T05:15:07.758Z,328.18
2022-11-15T05:17:34.705Z,374.12
2022-11-15T05:20:00.167Z,342.26
2022-11-15T05:22:26.339Z,319.47
2022-11-15T05:24:50.695Z,329.92
2022-11-15T05:27:16.020Z,341.41
2022-11-15T05:29:40.238Z,319.34
2022-11-15T05:32:04.747Z,292.81
2022-11-15T05:34:32.875Z,272.03
2022-11-15T05:36:57.951Z,280.46
2022-11-15T05:39:22.324Z,305.29
2022-11-15T05:41:54.679Z,296.94
2022-11-15T05:44:27.467Z,296.50
2022-11-15T05:46:57.174Z,278.19
2022-11-15T05:49:31.723Z,279.89
2022-11-15T05:52:00.759Z,280.67
2022-11-15T05:54:29.375Z,311.02
2022-11-15T05:56:54.354Z,339.47
2022-11-15T05:59:22.107Z,335.37
2022-11-15T06:01:46.368Z,327.14
2022-11-15T06:04:11.002Z,351.12
2022-11-15T06:06:36.462Z,309.09
2022-11-15T06:09:03.382Z,284.12
2022-11-15T06:11:27.427Z,271.53
2022-11-15T06:13:52.975Z,277.08
2022-11-15T06:16:17.481Z,277.77
2022-11-15T06:18:42.968Z,285.67
2022-11-15T06:21:09.218Z,279.77
2022-11-15T06:23:37.633Z,262.43
2022-11-15T06:26:06.988Z,269.65
2022-11-15T06:28:33.123Z,258.04
2022-11-15T06:30:57.462Z,270.28
2022-11-15T06:33:21.808Z,271.73
2022-11-15T06:35:47.019Z,279.06
2022-11-15T06:38:15.925Z,293.38
2022-11-15T06:40:42.691Z,335.28
2022-11-15T06:43:11.162Z,327.69
2022-11-15T06:45:36.341Z,329.68
2022-11-15T06:48:01.026Z,310.28
2022-11-15T06:50:26.024Z,288.70
2022-11-15T06:52:50.539Z,297.16
2022-11-15T06:55:14.987Z,295.37
2022-11-15T06:57:40.926Z,254.86
2022-11-15T07:00:10.495Z,273.70
2022-11-15T07:02:35.300Z,294.49
2022-11-15T07:05:00.398Z,272.31
2022-11-15T07:07:24.634Z,280.02
2022-11-15T07:09:49.058Z,286.29
2022-11-15T07:12:13.972Z,300.67
2022-11-15T07:14:38.364Z,291.66
2022-11-15T07:17:08.424Z,321.27
2022-11-15T07:19:33.446Z,328.55
2022-11-15T07:21:57.587Z,348.98
2022-11-15T07:24:21.704Z,391.26
2022-11-15T07:26:46.946Z,385.65
2022-11-15T07:29:11.151Z,379.40
2022-11-15T07:31:35.572Z,372.34
2022-11-15T07:34:03.699Z,345.55
2022-11-15T07:36:28.892Z,335.46
2022-11-15T07:38:53.191Z,383.79
2022-11-15T07:41:20.886Z,385.41
2022-11-15T07:43:45.034Z,387.93
2022-11-15T07:46:11.870Z,400.00
2022-11-15T07:48:45.596Z,474.12
2022-11-15T07:51:17.010Z,428.81
2022-11-15T07:53:46.489Z,414.15
2022-11-15T07:56:12.651Z,400.86
2022-11-15T07:58:37.050Z,367.12
2022-11-15T08:01:02.395Z,400.00
2022-11-15T08:03:26.800Z,369.96
2022-11-15T08:05:55.684Z,356.97
2022-11-15T08:08:23.710Z,353.06
2022-11-15T08:10:48.165Z,357.17
2022-11-15T08:13:15.561Z,386.18
2022-11-15T08:15:41.911Z,395.24
2022-11-15T08:18:10.383Z,400.34
2022-11-15T08:20:35.864Z,397.88
2022-11-15T08:23:02.358Z,407.60
2022-11-15T08:25:31.046Z,395.54
2022-11-15T08:27:57.032Z,403.27
2022-11-15T08:30:22.268Z,386.63
2022-11-15T08:32:46.956Z,389.75
2022-11-15T08:35:12.257Z,410.62
2022-11-15T08:37:37.319Z,395.11
2022-11-15T08:40:01.954Z,390.69
2022-11-15T08:42:29.010Z,396.66
2022-11-15T08:44:55.733Z,402.70
2022-11-15T08:47:20.011Z,384.83
2022-11-15T08:49:44.110Z,368.56
2022-11-15T08:52:09.785Z,370.30
2022-11-15T08:54:33.958Z,372.11
2022-11-15T08:56:58.374Z,381.59
2022-11-15T08:59:27.238Z,377.90
2022-11-15T09:01:51.649Z,374.80
2022-11-15T09:04:16.033Z,378.58
2022-11-15T09:06:43.299Z,371.10
2022-11-15T09:09:07.955Z,360.37
2022-11-15T09:11:32.270Z,366.75
2022-11-15T09:14:00.236Z,359.60
2022-11-15T09:16:27.497Z,363.65
2022-11-15T09:18:52.153Z,349.13
2022-11-15T09:21:17.999Z,349.12
2022-11-15T09:23:42.540Z,329.42
2022-11-15T09:26:09.602Z,325.48
2022-11-15T09:28:39.363Z,335.87
2022-11-15T09:31:06.965Z,345.52
2022-11-15T09:33:35.816Z,342.17
2022-11-15T09:36:07.842Z,332.99
2022-11-15T09:38:32.988Z,321.28
2022-11-15T09:41:37.868Z,326.59
2022-11-15T09:44:36.829Z,360.44
2022-11-15T09:47:33.224Z,358.38
2022-11-15T09:50:21.577Z,335.05
2022-11-15T09:52:28.312Z,340.87
2022-11-15T09:54:52.840Z,328.91
2022-11-15T09:57:16.259Z,326.88
2022-11-15T09:59:51.385Z,324.19
2022-11-15T10:02:16.865Z,312.37
2022-11-15T10:04:24.900Z,311.21
2022-11-15T10:06:40.085Z,320.24
2022-11-15T10:09:05.054Z,310.73
2022-11-15T10:13:51.441Z,312.34
2022-11-15T10:16:08.423Z,318.57
2022-11-15T10:18:38.589Z,319.31
2022-11-15T10:20:53.251Z,307.86
2022-11-15T10:23:10.701Z,310.27
2022-11-15T10:25:24.335Z,309.43
2022-11-15T10:27:30.074Z,301.11
2022-11-15T10:29:35.753Z,298.90
2022-11-15T10:31:45.475Z,306.58
2022-11-15T10:33:51.327Z,298.55
2022-11-15T10:36:27.714Z,298.99
2022-11-15T10:38:36.995Z,308.36
2022-11-15T10:40:46.125Z,303.00
2022-11-15T10:43:07.576Z,313.19
2022-11-15T10:45:34.510Z,327.69
2022-11-15T10:47:40.186Z,323.36
2022-11-15T10:50:03.685Z,324.40
2022-11-15T10:52:25.184Z,346.43
2022-11-15T10:54:45.000Z,326.12
2022-11-15T10:56:55.100Z,327.18
2022-11-15T10:59:14.745Z,310.89
2022-11-15T11:01:34.222Z,326.58
2022-11-15T11:03:45.582Z,311.45
2022-11-15T11:05:52.302Z,312.13
2022-11-15T11:08:04.138Z,297.69
2022-11-15T11:12:52.721Z,283.01
2022-11-15T11:14:58.558Z,288.48
2022-11-15T11:17:17.672Z,286.25
2022-11-15T11:20:05.845Z,295.65
2022-11-15T11:22:29.434Z,274.62
2022-11-15T11:24:45.112Z,259.15
2022-11-15T11:27:16.619Z,278.22
2022-11-15T11:29:42.699Z,274.70
2022-11-15T11:32:08.202Z,250.18
2022-11-15T11:34:34.738Z,250.20
2022-11-15T11:36:57.603Z,230.47
2022-11-15T11:39:39.233Z,230.72
2022-11-15T11:42:06.178Z,240.69
2022-11-15T11:44:34.674Z,228.40
2022-11-15T11:46:58.004Z,238.37
2022-11-15T11:49:15.659Z,232.49
2022-11-15T11:51:31.599Z,239.48
2022-11-15T11:53:50.519Z,222.22
2022-11-15T11:56:04.970Z,218.68
2022-11-15T11:58:23.742Z,224.30
2022-11-15T12:00:34.684Z,236.63
2022-11-15T12:02:48.952Z,246.75
2022-11-15T12:05:07.436Z,263.11
2022-11-15T12:07:24.524Z,250.05
2022-11-15T12:09:40.821Z,248.49
2022-11-15T12:12:02.325Z,229.99
2022-11-15T12:14:36.229Z,247.64
2022-11-15T12:16:55.747Z,227.41
2022-11-15T12:19:08.092Z,207.12
2022-11-15T12:21:31.373Z,223.37
2022-11-15T12:23:49.665Z,256.37
2022-11-15T12:26:05.986Z,244.47
2022-11-15T12:28:25.212Z,264.39
2022-11-15T12:30:53.216Z,282.74
2022-11-15T12:33:04.096Z,274.68
2022-11-15T12:35:30.628Z,304.11
2022-11-15T12:37:56.400Z,294.07
2022-11-15T12:40:33.002Z,251.26
2022-11-15T12:42:47.107Z,241.11
2022-11-15T12:45:03.186Z,247.21
2022-11-15T12:47:30.145Z,229.26
2022-11-15T12:49:51.459Z,264.11
2022-11-15T12:52:14.730Z,300.42
2022-11-15T12:54:55.064Z,314.54
2022-11-15T12:57:32.857Z,366.90
2022-11-15T12:59:56.349Z,333.77
2022-11-15T13:02:04.605Z,312.08
2022-11-15T13:04:27.971Z,317.77
2022-11-15T13:06:50.884Z,338.38
2022-11-15T13:08:57.253Z,352.98
2022-11-15T13:11:38.109Z,347.14
2022-11-15T13:13:49.447Z,353.37
2022-11-15T13:16:04.879Z,305.67
2022-11-15T13:18:35.035Z,317.47
2022-11-15T13:20:49.705Z,343.02
2022-11-15T13:23:03.334Z,317.60
2022-11-15T13:25:25.272Z,356.44
2022-11-15T13:27:33.278Z,356.75
2022-11-15T13:29:39.005Z,323.39
2022-11-15T13:31:51.513Z,297.57
2022-11-15T13:34:22.922Z,290.57
2022-11-15T13:36:38.185Z,276.41
2022-11-15T13:38:45.892Z,285.23
2022-11-15T13:40:52.470Z,307.09
2022-11-15T13:42:58.855Z,334.97
2022-11-15T13:45:21.140Z,369.46
2022-11-15T13:47:32.838Z,448.48
2022-11-15T13:49:39.685Z,513.02
2022-11-15T13:51:58.527Z,670.26
2022-11-15T13:54:24.533Z,636.96
2022-11-15T13:56:35.277Z,642.82
2022-11-15T13:58:43.223Z,626.48
2022-11-15T14:00:51.501Z,637.82
2022-11-15T14:03:00.932Z,583.72
2022-11-15T14:05:25.102Z,563.44
2022-11-15T14:07:43.271Z,567.61
2022-11-15T14:09:52.597Z,566.74
2022-11-15T14:12:00.957Z,703.18
2022-11-15T14:14:18.707Z,687.42
2022-11-15T14:16:37.366Z,681.23
2022-11-15T14:18:55.096Z,697.13
2022-11-15T14:21:10.920Z,710.59
2022-11-15T14:23:31.448Z,679.05
2022-11-15T14:25:39.387Z,645.39
2022-11-15T14:27:48.633Z,621.24
2022-11-15T14:29:54.922Z,645.00
2022-11-15T14:32:20.318Z,668.31
2022-11-15T14:34:26.851Z,686.28
2022-11-15T14:36:32.563Z,727.75
2022-11-15T14:38:40.987Z,797.38
2022-11-15T14:40:49.767Z,854.12
2022-11-15T14:42:55.495Z,854.99
2022-11-15T14:45:09.268Z,790.38
2022-11-15T14:47:19.301Z,722.07
2022-11-15T14:49:24.952Z,692.98
2022-11-15T14:51:30.610Z,667.65
2022-11-15T14:53:37.098Z,644.85
2022-11-15T14:55:53.053Z,644.44
2022-11-15T14:57:59.515Z,652.18
2022-11-15T15:00:21.114Z,639.23
2022-11-15T15:02:30.904Z,627.11
2022-11-15T15:04:36.646Z,631.92
2022-11-15T15:06:46.225Z,669.54
2022-11-15T15:08:52.242Z,699.78
2022-11-15T15:11:00.789Z,669.71
2022-11-15T15:13:08.037Z,669.91
2022-11-15T15:15:27.576Z,790.80
2022-11-15T15:17:33.291Z,973.66
2022-11-15T15:19:39.807Z,1086.35
2022-11-15T15:21:45.518Z,1044.44
2022-11-15T15:23:51.620Z,1097.29
2022-11-15T15:26:04.964Z,1016.54
2022-11-15T15:28:10.678Z,920.20
2022-11-15T15:30:17.505Z,966.12
2022-11-15T15:32:24.142Z,1321.60
2022-11-15T15:34:29.928Z,1124.10
2022-11-15T15:36:35.761Z,1210.65
2022-11-15T15:38:42.882Z,1251.28
2022-11-15T15:40:51.357Z,1146.22
2022-11-15T15:43:01.628Z,1066.75
2022-11-15T15:45:10.028Z,909.63
2022-11-15T15:47:19.911Z,931.07
2022-11-15T15:49:25.749Z,989.90
2022-11-15T15:51:32.305Z,1009.24
2022-11-15T15:53:38.961Z,996.29
2022-11-15T15:55:47.800Z,932.81
2022-11-15T15:57:54.954Z,954.56
2022-11-15T16:00:03.303Z,957.23
2022-11-15T16:02:18.641Z,932.17
2022-11-15T16:04:25.711Z,875.09
2022-11-15T16:06:45.348Z,864.88
2022-11-15T16:09:13.462Z,860.68
2022-11-15T16:11:17.957Z,1014.70
2022-11-15T16:13:24.392Z,1166.88
2022-11-15T16:15:35.991Z,1456.47
2022-11-15T16:17:49.449Z,1503.34
2022-11-15T16:19:55.218Z,1459.14
2022-11-15T16:22:00.918Z,1378.74
2022-11-15T16:24:08.953Z,1340.93
2022-11-15T16:26:25.905Z,1304.17
2022-11-15T16:28:36.940Z,1275.69
2022-11-15T16:30:55.390Z,1373.30
2022-11-15T16:33:02.515Z,1357.29
2022-11-15T16:35:09.380Z,1305.10
2022-11-15T16:37:27.024Z,1254.98
2022-11-15T16:39:39.321Z,1377.39
2022-11-15T16:41:56.526Z,1362.69
2022-11-15T16:44:03.100Z,1251.52
2022-11-15T16:46:20.520Z,1091.24
2022-11-15T16:48:29.672Z,913.20
2022-11-15T16:50:43.233Z,813.48
2022-11-15T16:52:49.001Z,763.60
2022-11-15T16:54:54.722Z,788.24
2022-11-15T16:57:01.282Z,805.74
2022-11-15T16:59:07.094Z,901.96
2022-11-15T17:01:25.120Z,1048.89
2022-11-15T17:03:32.235Z,1046.75
2022-11-15T17:05:37.972Z,970.06
2022-11-15T17:07:49.144Z,921.98
2022-11-15T17:09:55.695Z,881.58
2022-11-15T17:12:08.303Z,975.02
2022-11-15T17:14:16.532Z,1188.01
2022-11-15T17:16:25.853Z,1259.35
2022-11-15T17:18:31.744Z,1200.62
2022-11-15T17:20:37.721Z,1100.27
2022-11-15T17:22:44.494Z,1093.95
2022-11-15T17:24:50.716Z,1018.65
2022-11-15T17:26:56.468Z,995.69
2022-11-15T17:29:06.312Z,1007.90
2022-11-15T17:31:14.782Z,988.99
2022-11-15T17:33:23.078Z,932.00
2022-11-15T17:35:31.596Z,1010.21
2022-11-15T17:37:37.847Z,1071.32
2022-11-15T17:39:45.970Z,1082.55
2022-11-15T17:41:52.922Z,1124.94
2022-11-15T17:44:05.799Z,1103.39
2022-11-15T17:46:17.704Z,1084.96
2022-11-15T17:48:26.932Z,1079.97
2022-11-15T17:50:34.134Z,1106.12
2022-11-15T17:52:39.852Z,1174.34
2022-11-15T17:54:48.570Z,1169.35
2022-11-15T17:56:54.232Z,1070.17
2022-11-15T17:59:03.173Z,1060.41
2022-11-15T18:01:12.710Z,1123.75
2022-11-15T18:03:18.762Z,1246.52
2022-11-15T18:05:27.105Z,1129.64
2022-11-15T18:07:33.975Z,1038.22
2022-11-15T18:09:42.503Z,1020.40
2022-11-15T18:11:53.783Z,1052.90
2022-11-15T18:14:03.887Z,1020.90
2022-11-15T18:16:14.556Z,1068.44
2022-11-15T18:18:20.345Z,1030.77
2022-11-15T18:20:29.594Z,1010.83
2022-11-15T18:22:35.317Z,1037.87
2022-11-15T18:24:43.092Z,1082.10
2022-11-15T18:26:49.669Z,1100.34
2022-11-15T18:28:57.550Z,1089.08
2022-11-15T18:31:06.269Z,1123.50
2022-11-15T18:33:12.807Z,1139.65
2022-11-15T18:35:18.695Z,1212.78
2022-11-15T18:37:34.823Z,1234.74
2022-11-15T18:39:41.399Z,1208.04
2022-11-15T18:41:49.493Z,1225.09
2022-11-15T19:11:59.069Z,1291.82
2022-11-15T19:14:09.902Z,1336.66
2022-11-15T19:16:19.161Z,1332.19
2022-11-15T19:18:24.916Z,1290.95
2022-11-15T19:20:31.439Z,1283.87
2022-11-15T19:22:37.261Z,1269.73
2022-11-15T19:24:43.008Z,1246.18
2022-11-15T19:26:49.746Z,1300.73
2022-11-15T19:29:00.645Z,1329.03
2022-11-15T19:31:10.444Z,1253.09
2022-11-15T19:33:17.278Z,1251.10
2022-11-15T19:35:32.675Z,1275.89
2022-11-15T19:37:40.608Z,1227.45
2022-11-15T19:39:47.201Z,1214.87
2022-11-15T19:41:53.773Z,1262.47
2022-11-15T19:44:09.084Z,1313.07
2022-11-15T19:46:18.718Z,1275.43
2022-11-15T19:48:25.063Z,1259.08
2022-11-15T19:50:30.846Z,1263.07
2022-11-15T19:52:37.499Z,1205.11
2022-11-15T19:54:47.452Z,1115.97
2022-11-15T19:56:56.462Z,1057.56
2022-11-15T19:59:06.835Z,1018.21
2022-11-15T20:01:21.066Z,992.00
2022-11-15T20:03:28.396Z,938.15
2022-11-15T20:05:34.892Z,924.97
2022-11-15T20:07:40.877Z,900.10
2022-11-15T20:09:54.548Z,951.61
2022-11-15T20:12:01.201Z,1700.62
2022-11-15T20:14:11.876Z,1031.74
2022-11-15T20:16:21.971Z,986.83
2022-11-15T20:18:33.581Z,1009.45
2022-11-15T20:20:39.619Z,968.75
2022-11-15T20:22:45.689Z,950.98
2022-11-15T20:24:52.211Z,983.18
2022-11-15T20:26:57.928Z,986.26
2022-11-15T20:29:13.813Z,960.35
2022-11-15T20:31:22.027Z,944.87
2022-11-15T20:33:29.691Z,997.97
2022-11-15T20:35:35.452Z,1072.02
2022-11-15T20:37:42.866Z,1143.80
2022-11-15T20:39:48.789Z,1186.37
2022-11-15T20:41:54.467Z,1137.80
2022-11-15T20:45:49.326Z,1077.15
2022-11-15T20:48:19.005Z,1058.96
2022-11-15T20:50:41.584Z,1029.58
2022-11-15T20:52:48.805Z,1043.77
2022-11-15T20:54:55.658Z,1043.81
2022-11-15T20:57:01.506Z,1059.67
2022-11-15T20:59:07.338Z,1065.96
2022-11-15T21:01:23.917Z,1070.13
2022-11-15T21:05:33.386Z,1011.10
2022-11-15T21:07:45.023Z,979.41
2022-11-15T21:10:03.186Z,976.70
2022-11-15T21:12:12.805Z,955.68
2022-11-15T21:14:19.507Z,927.10
2022-11-15T21:16:25.289Z,919.02
2022-11-15T21:18:31.201Z,896.01
2022-11-15T21:20:42.985Z,905.80
2022-11-15T21:22:49.672Z,925.60
2022-11-15T21:24:59.083Z,962.56
2022-11-15T21:27:05.767Z,1007.20
2022-11-15T21:29:17.462Z,1019.84
2022-11-15T21:31:23.341Z,1065.18
2022-11-15T21:33:34.465Z,1085.57
2022-11-15T21:35:46.478Z,1117.01
2022-11-15T21:37:57.064Z,1240.25
2022-11-15T21:40:03.917Z,1336.95
2022-11-15T21:42:09.752Z,1306.27
2022-11-15T21:44:15.483Z,1269.96
2022-11-15T21:46:23.130Z,1287.32
2022-11-15T21:48:33.395Z,1312.57
2022-11-15T21:50:39.317Z,1327.47
2022-11-15T21:52:54.636Z,1300.60
2022-11-15T21:55:00.380Z,1218.25
2022-11-15T21:57:20.592Z,1055.72
2022-11-15T21:59:27.292Z,953.62
2022-11-15T22:01:45.543Z,894.23
2022-11-15T22:03:55.213Z,831.51
2022-11-15T22:06:02.069Z,883.83
2022-11-15T22:08:10.456Z,1126.11
2022-11-15T22:10:17.031Z,1171.51
2022-11-15T22:12:27.084Z,1065.31
2022-11-15T22:14:35.368Z,1028.61
2022-11-15T22:16:41.575Z,1012.52
2022-11-15T22:18:48.238Z,1034.44
2022-11-15T22:20:58.621Z,1066.02
2022-11-15T22:23:04.571Z,1113.92
2022-11-15T22:25:14.109Z,1113.62
2022-11-15T22:27:19.868Z,1160.64
2022-11-15T22:29:25.783Z,1143.55
2022-11-15T22:31:32.403Z,1117.24
2022-11-15T22:33:43.142Z,1113.97
2022-11-15T22:35:51.771Z,1150.37
2022-11-15T22:38:01.725Z,1130.87
2022-11-15T22:40:09.984Z,1150.16
2022-11-15T22:42:23.382Z,1138.11
2022-11-15T22:44:40.589Z,1130.75
2022-11-15T22:46:46.362Z,1095.38
2022-11-15T22:48:52.125Z,1077.64
2022-11-15T22:51:01.589Z,1107.20
2022-11-15T22:53:10.904Z,1118.96
2022-11-15T22:55:18.048Z,1134.48
2022-11-15T22:57:27.285Z,1158.79
2022-11-15T22:59:36.537Z,1178.43
2022-11-15T23:01:45.397Z,1169.15
2022-11-15T23:03:57.363Z,1190.69
2022-11-15T23:06:10.378Z,1182.27
2022-11-15T23:08:17.159Z,1188.50
2022-11-15T23:10:36.140Z,1155.46
2022-11-15T23:12:56.961Z,1134.15
2022-11-15T23:15:02.735Z,1135.17
2022-11-15T23:17:09.541Z,1118.19
2022-11-15T23:19:16.182Z,1110.85
2022-11-15T23:21:38.216Z,1102.55
2022-11-15T23:23:45.186Z,1085.21
2022-11-15T23:25:51.081Z,1074.86
2022-11-15T23:27:59.566Z,1064.59
2022-11-15T23:30:19.147Z,1058.30
2022-11-15T23:32:38.082Z,1050.38
2022-11-15T23:34:47.434Z,1024.86
2022-11-15T23:36:54.354Z,1039.95
2022-11-15T23:39:00.192Z,1033.85
2022-11-15T23:41:07.609Z,1022.08
2022-11-15T23:43:16.881Z,1028.81
2022-11-15T23:45:22.659Z,1007.77
2022-11-15T23:47:59.954Z,989.98
2022-11-15T23:50:08.982Z,1035.54
2022-11-15T23:52:15.670Z,1052.13
2022-11-15T23:54:21.477Z,1059.43
2022-11-15T23:56:28.525Z,1055.68
2022-11-15T23:58:35.199Z,1071.52
